createdAt,value
2022-10-17T00:00:49.109Z,101248.06
2022-10-17T00:03:17.353Z,101249.88
2022-10-17T00:05:47.725Z,101236.41
2022-10-17T00:08:18.480Z,101226.50
2022-10-17T00:10:47.143Z,101237.81
2022-10-17T00:13:36.793Z,101233.91
2022-10-17T00:16:06.963Z,101234.19
2022-10-17T00:18:35.032Z,101240.31
2022-10-17T00:21:02.937Z,101229.47
2022-10-17T00:23:31.236Z,101229.63
2022-10-17T00:26:00.332Z,101232.16
2022-10-17T00:28:28.407Z,101224.25
2022-10-17T00:30:58.446Z,101233.25
2022-10-17T00:33:28.135Z,101227.59
2022-10-17T00:36:04.805Z,101219.94
2022-10-17T00:38:32.842Z,101231.50
2022-10-17T00:41:00.751Z,101233.56
2022-10-17T00:43:29.665Z,101231.66
2022-10-17T00:45:57.623Z,101230.13
2022-10-17T00:48:27.244Z,101233.03
2022-10-17T00:50:56.082Z,101229.50
2022-10-17T00:53:24.204Z,101235.13
2022-10-17T00:55:54.949Z,101225.44
2022-10-17T00:58:23.404Z,101223.69
2022-10-17T01:00:51.304Z,101233.69
2022-10-17T01:03:19.372Z,101229.22
2022-10-17T01:05:48.780Z,101223.84
2022-10-17T01:08:17.388Z,101230.22
2022-10-17T01:10:56.254Z,101231.06
2022-10-17T01:13:27.346Z,101223.84
2022-10-17T01:16:06.241Z,101230.13
2022-10-17T01:18:45.149Z,101225.88
2022-10-17T01:21:28.575Z,101218.94
2022-10-17T01:24:36.396Z,101223.34
2022-10-17T01:27:31.145Z,101220.97
2022-10-17T01:30:11.294Z,101219.00
2022-10-17T01:32:47.663Z,101223.50
2022-10-17T01:35:23.264Z,101217.47
2022-10-17T01:38:00.219Z,101219.66
2022-10-17T01:40:32.585Z,101215.44
2022-10-17T01:43:06.499Z,101213.44
2022-10-17T01:45:39.538Z,101206.44
2022-10-17T01:48:15.575Z,101209.09
2022-10-17T01:50:49.353Z,101211.78
2022-10-17T01:53:23.611Z,101208.69
2022-10-17T01:55:55.121Z,101195.97
2022-10-17T01:58:29.982Z,101195.97
2022-10-17T02:01:01.175Z,101167.28
2022-10-17T02:03:35.229Z,101203.13
2022-10-17T02:06:03.505Z,101190.69
2022-10-17T02:08:43.638Z,101187.22
2022-10-17T02:11:16.128Z,101184.03
2022-10-17T02:14:02.472Z,101186.72
2022-10-17T02:16:37.066Z,101187.66
2022-10-17T02:19:28.304Z,101187.66
2022-10-17T02:22:07.220Z,101183.19
2022-10-17T02:24:44.094Z,101175.16
2022-10-17T02:27:21.789Z,101176.59
2022-10-17T02:29:55.197Z,101170.53
2022-10-17T02:32:27.676Z,101164.31
2022-10-17T02:35:02.976Z,101165.25
2022-10-17T02:37:33.415Z,101150.00
2022-10-17T02:40:03.119Z,101159.41
2022-10-17T02:42:32.182Z,101172.63
2022-10-17T02:45:02.729Z,101170.97
2022-10-17T02:47:37.188Z,101168.06
2022-10-17T02:50:08.670Z,101173.41
2022-10-17T02:52:45.296Z,101172.13
2022-10-17T02:55:18.817Z,101161.22
2022-10-17T02:57:51.682Z,101162.03
2022-10-17T03:00:20.945Z,101160.13
2022-10-17T03:02:50.764Z,101159.81
2022-10-17T03:05:22.482Z,101154.34
2022-10-17T03:07:50.582Z,101161.44
2022-10-17T03:10:19.198Z,101170.72
2022-10-17T03:12:48.232Z,101166.25
2022-10-17T03:15:16.694Z,101171.38
2022-10-17T03:20:14.958Z,101163.59
2022-10-17T03:22:44.442Z,101159.22
2022-10-17T03:25:12.461Z,101160.72
2022-10-17T03:27:40.520Z,101155.16
2022-10-17T03:30:10.895Z,101157.75
2022-10-17T03:32:40.129Z,101162.56
2022-10-17T03:35:13.996Z,101158.00
2022-10-17T03:37:47.446Z,101170.19
2022-10-17T03:40:16.590Z,101164.91
2022-10-17T03:42:45.004Z,101167.88
2022-10-17T03:45:13.149Z,101171.84
2022-10-17T03:47:41.195Z,101168.97
2022-10-17T03:50:10.059Z,101168.22
2022-10-17T03:52:39.693Z,101176.16
2022-10-17T03:55:09.433Z,101172.22
2022-10-17T03:57:40.179Z,101168.84
2022-10-17T04:00:12.693Z,101166.00
2022-10-17T04:02:44.867Z,101165.84
2022-10-17T04:05:18.923Z,101161.56
2022-10-17T04:07:47.709Z,101159.56
2022-10-17T04:10:19.124Z,101165.84
2022-10-17T04:12:48.829Z,101163.72
2022-10-17T04:15:17.083Z,101167.25
2022-10-17T04:17:48.505Z,101164.59
2022-10-17T04:20:17.422Z,101165.66
2022-10-17T04:22:45.377Z,101175.13
2022-10-17T04:25:14.268Z,101173.78
2022-10-17T04:27:48.969Z,101176.47
2022-10-17T04:30:17.884Z,101176.00
2022-10-17T04:32:46.503Z,101173.84
2022-10-17T04:35:20.174Z,101174.41
2022-10-17T04:37:52.956Z,101177.16
2022-10-17T04:40:21.874Z,101180.31
2022-10-17T04:42:54.191Z,101174.81
2022-10-17T04:45:27.007Z,101176.34
2022-10-17T04:47:59.301Z,101171.00
2022-10-17T04:50:27.640Z,101184.00
2022-10-17T04:53:19.912Z,101182.94
2022-10-17T04:55:48.129Z,101182.19
2022-10-17T04:58:17.766Z,101179.66
2022-10-17T05:00:45.975Z,101188.31
2022-10-17T05:03:20.856Z,101192.50
2022-10-17T05:05:48.911Z,101186.41
2022-10-17T05:08:17.636Z,101179.00
2022-10-17T05:10:47.112Z,101183.59
2022-10-17T05:13:15.547Z,101148.38
2022-10-17T05:15:44.834Z,101178.78
2022-10-17T05:18:13.659Z,101182.47
2022-10-17T05:20:43.507Z,101184.56
2022-10-17T05:23:11.594Z,101188.75
2022-10-17T05:25:43.039Z,101190.56
2022-10-17T05:28:10.966Z,101189.69
2022-10-17T05:30:41.149Z,101188.75
2022-10-17T05:33:11.603Z,101184.75
2022-10-17T05:35:39.897Z,101188.31
2022-10-17T05:38:08.228Z,101179.28
2022-10-17T05:40:38.532Z,101186.69
2022-10-17T05:43:06.729Z,101179.28
2022-10-17T05:45:35.017Z,101187.53
2022-10-17T05:48:03.375Z,101175.78
2022-10-17T05:50:32.966Z,101167.72
2022-10-17T05:53:09.137Z,101170.97
2022-10-17T05:55:42.153Z,101178.25
2022-10-17T05:58:17.604Z,101175.31
2022-10-17T06:00:58.078Z,101163.19
2022-10-17T06:03:26.120Z,101173.41
2022-10-17T06:05:56.018Z,101178.44
2022-10-17T06:08:24.014Z,101179.19
2022-10-17T06:10:52.135Z,101179.13
2022-10-17T06:13:20.431Z,101190.38
2022-10-17T06:15:51.969Z,101181.38
2022-10-17T06:18:19.927Z,101187.34
2022-10-17T06:20:48.246Z,101193.16
2022-10-17T06:23:19.874Z,101191.25
2022-10-17T06:25:58.662Z,101190.47
2022-10-17T06:28:26.757Z,101194.69
2022-10-17T06:30:55.157Z,101189.84
2022-10-17T06:33:23.361Z,101187.09
2022-10-17T06:35:55.059Z,101196.69
2022-10-17T06:38:25.773Z,101200.16
2022-10-17T06:40:57.783Z,101199.88
2022-10-17T06:43:27.852Z,101203.72
2022-10-17T06:46:17.978Z,101221.00
2022-10-17T06:48:55.865Z,101212.44
2022-10-17T06:51:44.176Z,101211.28
2022-10-17T06:54:16.513Z,101229.97
2022-10-17T06:57:03.712Z,101227.34
2022-10-17T06:59:41.163Z,101240.00
2022-10-17T07:02:17.099Z,101241.28
2022-10-17T07:04:47.132Z,101222.34
2022-10-17T07:07:15.117Z,101220.84
2022-10-17T07:09:44.508Z,101236.00
2022-10-17T07:12:12.851Z,101236.69
2022-10-17T07:14:47.183Z,101237.69
2022-10-17T07:17:15.301Z,101252.16
2022-10-17T07:19:44.419Z,101250.47
2022-10-17T07:22:13.299Z,101251.38
2022-10-17T07:24:46.213Z,101248.03
2022-10-17T07:27:33.779Z,101260.19
2022-10-17T07:30:01.713Z,101262.19
2022-10-17T07:32:55.530Z,101262.09
2022-10-17T07:35:23.551Z,101262.81
2022-10-17T07:37:52.203Z,101268.09
2022-10-17T07:40:23.208Z,101259.31
2022-10-17T07:42:51.244Z,101261.31
2022-10-17T07:45:20.283Z,101254.03
2022-10-17T07:47:48.460Z,101259.63
2022-10-17T07:50:17.866Z,101236.00
2022-10-17T07:52:45.883Z,101263.13
2022-10-17T07:55:13.955Z,101257.34
2022-10-17T07:57:43.282Z,101259.72
2022-10-17T08:00:12.075Z,101262.47
2022-10-17T08:02:43.460Z,101257.25
2022-10-17T08:05:11.530Z,101255.97
2022-10-17T08:07:40.399Z,101257.13
2022-10-17T08:12:43.709Z,101254.72
2022-10-17T08:15:12.403Z,101259.00
2022-10-17T08:17:40.691Z,101257.47
2022-10-17T08:20:09.457Z,101267.81
2022-10-17T08:22:37.497Z,101263.59
2022-10-17T08:25:06.130Z,101260.25
2022-10-17T08:27:34.783Z,101247.03
2022-10-17T08:30:04.379Z,101253.41
2022-10-17T08:32:32.707Z,101257.09
2022-10-17T08:35:01.254Z,101271.00
2022-10-17T08:37:30.431Z,101251.72
2022-10-17T08:39:58.512Z,101260.13
2022-10-17T08:42:44.617Z,101254.38
2022-10-17T08:45:22.026Z,101264.72
2022-10-17T08:47:53.208Z,101260.81
2022-10-17T08:50:28.630Z,101269.66
2022-10-17T08:53:02.851Z,101263.78
2022-10-17T08:55:35.058Z,101252.50
2022-10-17T08:58:02.971Z,101265.78
2022-10-17T09:00:34.047Z,101254.59
2022-10-17T09:03:20.359Z,101245.81
2022-10-17T09:05:54.217Z,101233.75
2022-10-17T09:08:36.109Z,101233.16
2022-10-17T09:11:14.384Z,101234.06
2022-10-17T09:14:02.467Z,101234.38
2022-10-17T09:16:48.895Z,101229.13
2022-10-17T09:19:22.358Z,101236.72
2022-10-17T09:21:54.634Z,101234.31
2022-10-17T09:24:40.484Z,101236.78
2022-10-17T09:27:21.297Z,101242.16
2022-10-17T09:29:55.564Z,101248.97
2022-10-17T09:32:27.023Z,101240.25
2022-10-17T09:34:55.560Z,101244.69
2022-10-17T09:37:30.843Z,101247.69
2022-10-17T09:39:59.217Z,101254.44
2022-10-17T09:42:28.528Z,101267.16
2022-10-17T09:45:06.756Z,101264.78
2022-10-17T09:47:42.404Z,101259.81
2022-10-17T09:50:23.947Z,101264.13
2022-10-17T09:52:52.934Z,101250.66
2022-10-17T09:55:27.251Z,101255.09
2022-10-17T09:57:57.396Z,101264.75
2022-10-17T10:00:27.856Z,101262.59
2022-10-17T10:03:14.144Z,101261.13
2022-10-17T10:05:43.538Z,101260.91
2022-10-17T10:08:16.362Z,101260.31
2022-10-17T10:10:45.562Z,101270.97
2022-10-17T10:13:21.301Z,101259.50
2022-10-17T10:15:51.460Z,101254.00
2022-10-17T10:18:32.006Z,101258.28
2022-10-17T10:21:12.859Z,101258.41
2022-10-17T10:23:42.907Z,101264.31
2022-10-17T10:26:24.652Z,101264.66
2022-10-17T10:28:58.556Z,101264.63
2022-10-17T10:31:33.009Z,101270.44
2022-10-17T10:34:13.596Z,101257.97
2022-10-17T10:37:03.371Z,101270.31
2022-10-17T10:39:44.075Z,101265.59
2022-10-17T10:42:24.987Z,101257.81
2022-10-17T10:44:55.041Z,101261.91
2022-10-17T10:47:26.690Z,101261.31
2022-10-17T10:50:25.823Z,101260.06
2022-10-17T10:53:11.360Z,101260.38
2022-10-17T10:55:48.903Z,101255.06
2022-10-17T10:58:28.507Z,101250.78
2022-10-17T11:00:59.630Z,101254.78
2022-10-17T11:03:32.936Z,101263.88
2022-10-17T11:06:07.170Z,101258.06
2022-10-17T11:08:39.487Z,101255.47
2022-10-17T11:11:18.143Z,101251.59
2022-10-17T11:13:53.360Z,101261.66
2022-10-17T11:16:32.245Z,101259.00
2022-10-17T11:19:09.378Z,101251.28
2022-10-17T11:21:45.805Z,101234.69
2022-10-17T11:24:19.165Z,101240.22
2022-10-17T11:26:55.135Z,101246.44
2022-10-17T11:29:27.589Z,101244.72
2022-10-17T11:31:58.856Z,101247.03
2022-10-17T11:34:28.430Z,101248.75
2022-10-17T11:37:00.992Z,101250.47
2022-10-17T11:39:49.402Z,101237.84
2022-10-17T11:42:21.968Z,101247.91
2022-10-17T11:44:54.929Z,101243.59
2022-10-17T11:47:32.678Z,101242.00
2022-10-17T11:53:00.865Z,101244.38
2022-10-17T11:55:30.283Z,101234.00
2022-10-17T11:58:11.986Z,101242.97
2022-10-17T12:00:51.706Z,101251.06
2022-10-17T12:03:47.704Z,101264.34
2022-10-17T12:06:24.766Z,101263.84
2022-10-17T12:09:04.157Z,101271.44
2022-10-17T12:11:46.544Z,101264.06
2022-10-17T12:14:28.931Z,101163.44
2022-10-17T12:16:57.034Z,101265.59
2022-10-17T12:19:28.734Z,101242.25
2022-10-17T12:21:59.535Z,101261.53
2022-10-17T12:24:36.326Z,101268.16
2022-10-17T12:27:33.473Z,101281.88
2022-10-17T12:30:02.004Z,101276.38
2022-10-17T12:32:36.799Z,101274.91
2022-10-17T12:35:21.760Z,101272.50
2022-10-17T12:38:23.661Z,101251.25
2022-10-17T12:41:03.822Z,101277.94
2022-10-17T12:43:46.744Z,101289.16
2022-10-17T12:46:34.865Z,101291.19
2022-10-17T12:49:06.035Z,101295.34
2022-10-17T12:52:07.224Z,101296.31
2022-10-17T12:54:47.759Z,101292.06
2022-10-17T12:57:28.356Z,101297.28
2022-10-17T12:59:58.713Z,101301.13
2022-10-17T13:02:29.917Z,101316.44
2022-10-17T13:05:06.331Z,101311.06
2022-10-17T13:07:35.729Z,101320.13
2022-10-17T13:10:05.191Z,101328.38
2022-10-17T13:12:41.209Z,101331.47
2022-10-17T13:15:16.751Z,101338.56
2022-10-17T13:17:44.790Z,101318.91
2022-10-17T13:20:25.557Z,101322.53
2022-10-17T13:22:58.139Z,101341.13
2022-10-17T13:25:28.235Z,101329.88
2022-10-17T13:28:13.009Z,101347.94
2022-10-17T13:30:46.549Z,101340.25
2022-10-17T13:33:28.075Z,101347.94
2022-10-17T13:36:00.545Z,101340.34
2022-10-17T13:38:29.843Z,101336.63
2022-10-17T13:41:10.856Z,101345.66
2022-10-17T13:43:47.125Z,101350.03
2022-10-17T13:46:37.522Z,101347.56
2022-10-17T13:49:24.522Z,101352.00
2022-10-17T13:51:57.132Z,101356.00
2022-10-17T13:54:35.124Z,101367.38
2022-10-17T13:57:04.716Z,101359.94
2022-10-17T13:59:39.891Z,101362.59
2022-10-17T14:02:14.574Z,101357.81
2022-10-17T14:05:14.935Z,101351.28
2022-10-17T14:07:58.005Z,101357.31
2022-10-17T14:10:26.901Z,101356.06
2022-10-17T14:12:56.203Z,101356.81
2022-10-17T14:15:30.345Z,101356.13
2022-10-17T14:18:05.443Z,101366.72
2022-10-17T14:23:36.600Z,101365.44
2022-10-17T14:26:06.936Z,101363.34
2022-10-17T14:28:35.906Z,101373.63
2022-10-17T14:31:17.955Z,101347.53
2022-10-17T14:33:50.670Z,101380.28
2022-10-17T14:36:20.528Z,101380.28
2022-10-17T14:38:50.966Z,101383.97
2022-10-17T14:44:23.993Z,101390.06
2022-10-17T14:46:57.777Z,101393.78
2022-10-17T14:49:32.298Z,101393.31
2022-10-17T14:52:31.227Z,101398.56
2022-10-17T14:55:01.298Z,101388.34
2022-10-17T14:57:46.745Z,101414.13
2022-10-17T15:00:16.449Z,101417.13
2022-10-17T15:02:46.742Z,101423.06
2022-10-17T15:05:15.540Z,101428.22
2022-10-17T15:07:44.566Z,101437.59
2022-10-17T15:10:26.865Z,101426.47
2022-10-17T15:12:58.748Z,101437.81
2022-10-17T15:15:28.272Z,101441.63
2022-10-17T15:17:57.525Z,101444.97
2022-10-17T15:20:28.013Z,101444.97
2022-10-17T15:22:56.486Z,101445.81
2022-10-17T15:25:25.978Z,101452.59
2022-10-17T15:27:54.761Z,101450.50
2022-10-17T15:30:25.014Z,101452.38
2022-10-17T15:32:53.536Z,101452.75
2022-10-17T15:35:23.638Z,101427.44
2022-10-17T15:37:52.192Z,101453.56
2022-10-17T15:40:22.125Z,101440.00
2022-10-17T15:42:50.090Z,101451.22
2022-10-17T15:45:22.275Z,101451.06
2022-10-17T15:47:52.414Z,101461.81
2022-10-17T15:50:24.379Z,101459.34
2022-10-17T15:52:52.265Z,101458.22
2022-10-17T15:55:20.669Z,101461.19
2022-10-17T15:57:52.027Z,101460.22
2022-10-17T16:00:21.731Z,101467.81
2022-10-17T16:02:50.739Z,101464.34
2022-10-17T16:05:25.675Z,101458.19
2022-10-17T16:07:54.827Z,101470.53
2022-10-17T16:10:23.686Z,101472.84
2022-10-17T16:12:51.599Z,101475.44
2022-10-17T16:15:22.768Z,101483.84
2022-10-17T16:17:51.076Z,101488.63
2022-10-17T16:20:19.648Z,101483.94
2022-10-17T16:22:50.201Z,101497.06
2022-10-17T16:25:20.911Z,101497.75
2022-10-17T16:27:50.179Z,101507.06
2022-10-17T16:30:18.783Z,101503.78
2022-10-17T16:32:46.938Z,101501.72
2022-10-17T16:35:18.674Z,101505.69
2022-10-17T16:37:47.479Z,101508.22
2022-10-17T16:40:17.415Z,101521.56
2022-10-17T16:42:45.826Z,101514.81
2022-10-17T16:45:18.136Z,101523.38
2022-10-17T16:47:46.406Z,101516.94
2022-10-17T16:50:14.897Z,101533.59
2022-10-17T16:52:43.038Z,101537.81
2022-10-17T16:55:11.652Z,101529.56
2022-10-17T16:57:41.025Z,101532.81
2022-10-17T17:00:11.857Z,101541.00
2022-10-17T17:02:39.830Z,101538.13
2022-10-17T17:05:09.100Z,101541.47
2022-10-17T17:07:36.982Z,101545.56
2022-10-17T17:10:05.755Z,101553.41
2022-10-17T17:12:34.304Z,101550.34
2022-10-17T17:15:04.116Z,101558.81
2022-10-17T17:17:49.272Z,101556.38
2022-10-17T17:20:18.400Z,101563.09
2022-10-17T17:22:46.345Z,101562.59
2022-10-17T17:25:14.405Z,101559.44
2022-10-17T17:27:42.359Z,101570.69
2022-10-17T17:30:12.615Z,101571.78
2022-10-17T17:32:40.779Z,101567.13
2022-10-17T17:35:09.456Z,101576.75
2022-10-17T17:37:37.367Z,101561.38
2022-10-17T17:40:06.411Z,101573.06
2022-10-17T17:42:34.279Z,101584.44
2022-10-17T17:45:02.180Z,101581.97
2022-10-17T17:47:31.711Z,101582.41
2022-10-17T17:49:59.896Z,101553.72
2022-10-17T17:52:28.132Z,101573.75
2022-10-17T17:54:56.275Z,101596.56
2022-10-17T17:57:24.191Z,101598.31
2022-10-17T17:59:52.303Z,101598.09
2022-10-17T18:02:20.287Z,101610.59
2022-10-17T18:04:49.708Z,101609.78
2022-10-17T18:07:17.570Z,101609.97
2022-10-17T18:09:45.477Z,101605.56
2022-10-17T18:12:13.386Z,101606.56
2022-10-17T18:14:41.483Z,101612.94
2022-10-17T18:17:09.489Z,101616.38
2022-10-17T18:19:37.558Z,101624.91
2022-10-17T18:22:07.007Z,101625.03
2022-10-17T18:24:34.955Z,101625.22
2022-10-17T18:27:05.921Z,101628.63
2022-10-17T18:29:34.419Z,101625.75
2022-10-17T18:32:02.809Z,101635.72
2022-10-17T18:34:30.815Z,101623.91
2022-10-17T18:37:02.563Z,101629.06
2022-10-17T18:39:32.138Z,101620.41
2022-10-17T18:42:00.140Z,101624.94
2022-10-17T18:44:28.348Z,101636.88
2022-10-17T18:46:58.619Z,101635.31
2022-10-17T18:49:29.248Z,101634.84
2022-10-17T18:51:57.351Z,101628.97
2022-10-17T18:54:25.344Z,101636.59
2022-10-17T18:56:56.290Z,101633.91
2022-10-17T18:59:24.355Z,101635.94
2022-10-17T19:01:52.578Z,101626.88
2022-10-17T19:04:20.782Z,101619.75
2022-10-17T19:06:49.132Z,101630.53
2022-10-17T19:09:17.449Z,101634.38
2022-10-17T19:11:45.604Z,101635.44
2022-10-17T19:14:15.075Z,101637.19
2022-10-17T19:16:44.802Z,101634.47
2022-10-17T19:19:14.661Z,101649.50
2022-10-17T19:21:43.054Z,101649.78
2022-10-17T19:24:14.217Z,101649.69
2022-10-17T19:26:53.424Z,101646.22
2022-10-17T19:29:23.454Z,101652.00
2022-10-17T19:34:31.645Z,101643.22
2022-10-17T19:37:02.446Z,101642.56
2022-10-17T19:39:30.442Z,101656.91
2022-10-17T19:42:04.329Z,101663.34
2022-10-17T19:44:36.535Z,101671.44
2022-10-17T19:47:04.587Z,101665.47
2022-10-17T19:49:32.595Z,101665.00
2022-10-17T19:52:00.579Z,101675.00
2022-10-17T19:54:28.732Z,101681.25
2022-10-17T19:56:59.647Z,101678.47
2022-10-17T19:59:27.643Z,101675.66
2022-10-17T20:01:57.120Z,101682.72
2022-10-17T20:04:25.315Z,101680.28
2022-10-17T20:06:59.719Z,101673.34
2022-10-17T20:09:28.064Z,101697.44
2022-10-17T20:11:56.234Z,101707.28
2022-10-17T20:14:24.354Z,101701.88
2022-10-17T20:16:53.570Z,101697.59
2022-10-17T20:19:26.132Z,101706.91
2022-10-17T20:21:54.151Z,101702.47
2022-10-17T20:24:22.350Z,101709.97
2022-10-17T20:26:50.369Z,101708.97
2022-10-17T20:29:21.015Z,101718.59
2022-10-17T20:31:49.405Z,101719.38
2022-10-17T20:34:18.854Z,101729.38
2022-10-17T20:36:48.792Z,101731.19
2022-10-17T20:39:19.073Z,101732.28
2022-10-17T20:41:47.985Z,101736.22
2022-10-17T20:44:16.092Z,101733.69
2022-10-17T20:46:57.661Z,101739.44
2022-10-17T20:49:30.449Z,101746.88
2022-10-17T20:52:00.685Z,101755.41
2022-10-17T20:54:29.337Z,101752.63
2022-10-17T20:57:04.924Z,101744.13
2022-10-17T20:59:36.340Z,101742.91
2022-10-17T21:02:05.195Z,101767.25
2022-10-17T21:04:45.996Z,101764.66
2022-10-17T21:07:16.444Z,101768.69
2022-10-17T21:09:46.635Z,101775.44
2022-10-17T21:12:26.036Z,101771.50
2022-10-17T21:15:05.599Z,101776.97
2022-10-17T21:17:33.601Z,101778.13
2022-10-17T21:20:01.625Z,101767.22
2022-10-17T21:22:31.191Z,101791.78
2022-10-17T21:24:59.554Z,101780.34
2022-10-17T21:27:27.701Z,101789.25
2022-10-17T21:29:55.744Z,101773.50
2022-10-17T21:32:39.432Z,101791.00
2022-10-17T21:35:12.170Z,101788.38
2022-10-17T21:37:41.571Z,101785.34
2022-10-17T21:40:10.654Z,101800.44
2022-10-17T21:42:38.612Z,101796.63
2022-10-17T21:45:15.026Z,101800.72
2022-10-17T21:47:55.064Z,101799.69
2022-10-17T21:50:33.228Z,101789.84
2022-10-17T21:53:02.557Z,101806.03
2022-10-17T21:55:30.586Z,101804.19
2022-10-17T21:57:58.613Z,101808.09
2022-10-17T22:00:26.704Z,101803.91
2022-10-17T22:02:54.976Z,101806.19
2022-10-17T22:05:25.738Z,101802.19
2022-10-17T22:07:53.775Z,101807.25
2022-10-17T22:10:23.218Z,101800.63
2022-10-17T22:12:54.074Z,101802.63
2022-10-17T22:15:22.100Z,101806.78
2022-10-17T22:17:50.133Z,101808.34
2022-10-17T22:20:18.386Z,101809.31
2022-10-17T22:22:46.391Z,101795.31
2022-10-17T22:25:14.462Z,101809.31
2022-10-17T22:27:43.874Z,101808.19
2022-10-17T22:30:12.993Z,101801.31
2022-10-17T22:32:41.044Z,101804.81
2022-10-17T22:35:09.601Z,101809.28
2022-10-17T22:37:37.840Z,101799.25
2022-10-17T22:40:07.174Z,101799.75
2022-10-17T22:42:35.350Z,101796.09
2022-10-17T22:45:05.254Z,101792.34
2022-10-17T22:47:33.487Z,101803.22
2022-10-17T22:50:01.638Z,101814.94
2022-10-17T22:52:29.821Z,101811.38
2022-10-17T22:54:58.085Z,101813.13
2022-10-17T22:57:25.967Z,101808.84
2022-10-17T22:59:53.876Z,101820.59
2022-10-17T23:02:23.246Z,101834.06
2022-10-17T23:04:51.271Z,101825.97
2022-10-17T23:07:19.239Z,101830.38
2022-10-17T23:09:47.214Z,101825.00
2022-10-17T23:12:15.258Z,101824.47
2022-10-17T23:14:43.850Z,101830.97
2022-10-17T23:17:13.061Z,101818.47
2022-10-17T23:19:42.599Z,101827.00
2022-10-17T23:22:10.639Z,101826.47
2022-10-17T23:24:38.531Z,101823.84
2022-10-17T23:27:06.507Z,101838.44
2022-10-17T23:29:35.711Z,101834.00
2022-10-17T23:32:03.824Z,101836.75
2022-10-17T23:34:31.840Z,101846.50
2022-10-17T23:37:01.242Z,101834.69
2022-10-17T23:39:29.134Z,101834.94
2022-10-17T23:41:57.055Z,101836.84
2022-10-17T23:44:25.026Z,101833.31
2022-10-17T23:46:52.932Z,101848.91
2022-10-17T23:49:20.949Z,101839.72
2022-10-17T23:51:49.034Z,101833.38
2022-10-17T23:54:18.576Z,101830.69
2022-10-17T23:56:46.641Z,101826.59
2022-10-17T23:59:14.693Z,101823.97
